Terminal Aerodrome Forecast
Issued by NWS

Home | Current Version | Previous Version | Text Only | Print | Product List | Glossary On
Versions: 1 2 3 4 5 6 7 8 9 10 11 12 13 14 15 16 17 18 19 20 21 22 23 24 25 26 27 28 29 30 31 32 33 34
000
FTUS41 KBOX 171736
TAFACK
TAF
KACK 171736Z 1718/1818 03007KT P6SM BKN100
     FM172000 08006KT P6SM OVC070
     FM180000 11008KT 5SM -RA OVC050
     FM180600 11018G28KT 4SM -RA OVC010
     FM180900 10021G30KT 2SM -RA OVC010
     FM181400 08021G32KT 1SM BR VCSH OVC010=

USA.gov is the U.S. government's official web portal to all federal, state and local government web resources and services.